createdAt,value
2018-09-13T00:07:19.998Z,57.8
2018-09-13T00:12:28.100Z,58.4
2018-09-13T00:17:36.228Z,59.2
2018-09-13T00:22:44.100Z,59.7
2018-09-13T00:27:52.808Z,59.1
2018-09-13T00:33:00.138Z,59.7
2018-09-13T00:38:08.228Z,61
2018-09-13T00:43:16.302Z,60.9
2018-09-13T00:48:24.357Z,60.9
2018-09-13T00:53:32.529Z,61.3
2018-09-13T00:58:40.458Z,60.9
2018-09-13T01:03:48.645Z,60.8
2018-09-13T01:08:56.598Z,61.4
2018-09-13T01:14:07.402Z,61.6
2018-09-13T01:19:12.696Z,61.8
2018-09-13T01:24:20.805Z,62.3
2018-09-13T01:29:28.822Z,62.3
2018-09-13T01:39:44.954Z,62.8
2018-09-13T01:44:53.065Z,62.6
2018-09-13T01:50:01.082Z,62.4
2018-09-13T01:55:09.267Z,63
2018-09-13T02:00:17.280Z,63
2018-09-13T02:05:25.351Z,63
2018-09-13T02:10:33.429Z,63
2018-09-13T02:15:41.694Z,63.1
2018-09-13T02:20:49.580Z,63.2
2018-09-13T02:25:57.731Z,63
2018-09-13T02:31:05.746Z,62.8
2018-09-13T02:36:13.861Z,63.5
2018-09-13T02:41:21.986Z,63.4
2018-09-13T02:46:29.968Z,63.5
2018-09-13T02:51:38.063Z,63.5
2018-09-13T02:56:46.351Z,63.5
2018-09-13T03:01:54.178Z,63.5
2018-09-13T03:07:02.296Z,63.4
2018-09-13T03:12:10.372Z,63.8
2018-09-13T03:22:26.521Z,63.8
2018-09-13T03:27:34.578Z,64.3
2018-09-13T03:32:42.632Z,64.2
2018-09-13T03:37:50.691Z,64.5
2018-09-13T03:42:58.856Z,64.9
2018-09-13T03:48:06.776Z,65.5
2018-09-13T03:53:14.847Z,65.6
2018-09-13T03:58:23.354Z,65.3
2018-09-13T04:03:31.001Z,65.5
2018-09-13T04:08:38.945Z,65.1
2018-09-13T04:13:46.998Z,65
2018-09-13T04:18:55.043Z,64.4
2018-09-13T04:29:11.103Z,64.3
2018-09-13T04:34:19.132Z,63.8
2018-09-13T04:39:27.138Z,63.8
2018-09-13T04:44:35.141Z,63.3
2018-09-13T04:54:51.244Z,62.8
2018-09-13T05:10:15.053Z,62.5
2018-09-13T05:15:23.018Z,62.9
2018-09-13T05:20:31.053Z,62.9
2018-09-13T05:25:38.988Z,62.8
2018-09-13T05:30:46.946Z,63.1
2018-09-13T05:35:54.938Z,63.3
2018-09-13T05:41:02.907Z,63.4
2018-09-13T05:46:10.897Z,63.4
2018-09-13T05:51:18.920Z,63.2
2018-09-13T05:56:26.842Z,63.4
2018-09-13T06:01:34.796Z,63.4
2018-09-13T06:06:42.785Z,63.2
2018-09-13T06:11:50.760Z,63.2
2018-09-13T06:16:58.695Z,63.3
2018-09-13T06:22:06.627Z,62.8
2018-09-13T06:27:14.565Z,62.2
2018-09-13T06:32:22.734Z,62
2018-09-13T06:37:30.447Z,62.2
2018-09-13T06:52:54.263Z,62.9
2018-09-13T06:58:02.168Z,63.5
2018-09-13T07:03:10.062Z,63.5
2018-09-13T07:08:17.921Z,63.3
2018-09-13T07:18:33.620Z,62.9
2018-09-13T07:23:41.453Z,62.8
2018-09-13T07:28:49.279Z,62
2018-09-13T07:33:57.067Z,62
2018-09-13T07:39:04.876Z,62.8
2018-09-13T07:44:12.705Z,62
2018-09-13T07:49:20.457Z,61.8
2018-09-13T07:54:28.346Z,62.3
2018-09-13T07:59:36.141Z,62.1
2018-09-13T08:04:43.816Z,62.3
2018-09-13T08:09:51.694Z,62.4
2018-09-13T08:14:59.394Z,62.1
2018-09-13T08:20:07.209Z,60.8
2018-09-13T08:30:22.700Z,61.1
2018-09-13T08:35:30.441Z,60.6
2018-09-13T08:40:38.217Z,60.3
2018-09-13T08:45:45.970Z,60.6
2018-09-13T08:50:53.860Z,60.4
2018-09-13T08:56:01.458Z,59.9
2018-09-13T09:01:09.047Z,59.4
2018-09-13T09:06:16.818Z,59.3
2018-09-13T09:11:24.510Z,59.3
2018-09-13T09:16:32.305Z,58.7
2018-09-13T09:21:39.937Z,58.9
2018-09-13T09:26:47.483Z,58.3
2018-09-13T09:37:02.693Z,57.1
2018-09-13T09:42:10.344Z,56
2018-09-13T09:47:17.982Z,56.5
2018-09-13T09:52:25.475Z,56.1
2018-09-13T09:57:33.008Z,55.2
2018-09-13T10:02:40.567Z,56
2018-09-13T10:12:55.613Z,54.9
2018-09-13T10:18:03.195Z,55.9
2018-09-13T10:23:10.578Z,55.2
2018-09-13T10:28:18.055Z,55.5
2018-09-13T10:33:25.520Z,55.5
2018-09-13T10:38:33.029Z,55.8
2018-09-13T10:43:40.741Z,55.3
2018-09-13T10:48:47.969Z,54.5
2018-09-13T10:53:55.449Z,55.5
2018-09-13T10:59:02.873Z,54.4
2018-09-13T11:04:10.338Z,54
2018-09-13T11:09:17.751Z,54
2018-09-13T11:14:25.202Z,52
2018-09-13T11:19:32.581Z,52.2
2018-09-13T11:24:40.028Z,51.1
2018-09-13T11:29:47.407Z,53.4
2018-09-13T11:34:54.778Z,53.3
2018-09-13T11:40:02.489Z,51.5
2018-09-13T11:45:09.535Z,52.5
2018-09-13T12:05:39.019Z,46.6
2018-09-13T12:10:46.321Z,45.1
2018-09-13T12:15:53.659Z,46
2018-09-13T12:21:01.007Z,48
2018-09-13T12:26:08.286Z,46.7
2018-09-13T12:31:15.391Z,45.3
2018-09-13T12:36:22.665Z,48.9
2018-09-13T12:41:29.902Z,48.3
2018-09-13T12:46:37.284Z,48.4
2018-09-13T12:51:44.387Z,44.5
2018-09-13T12:56:51.599Z,43.9
2018-09-13T13:07:06.095Z,44.5
2018-09-13T13:12:13.312Z,46.3
2018-09-13T13:17:20.342Z,45.8
2018-09-13T13:22:27.348Z,46.2
2018-09-13T13:27:34.533Z,43.5
2018-09-13T13:37:48.643Z,44.5
2018-09-13T13:42:55.771Z,47
2018-09-13T13:48:02.945Z,46.6
2018-09-13T13:53:09.995Z,46.7
2018-09-13T14:03:24.249Z,46.3
2018-09-13T14:08:31.411Z,46.8
2018-09-13T14:13:38.572Z,46.5
2018-09-13T14:18:45.742Z,46.7
2018-09-13T14:23:52.929Z,46.4
2018-09-13T14:29:00.203Z,46.9
2018-09-13T14:34:07.359Z,46.9
2018-09-13T14:44:22.627Z,46.9
2018-09-13T14:49:28.963Z,46.6
2018-09-13T14:54:36.264Z,48
2018-09-13T14:59:43.456Z,46.8
2018-09-13T15:04:50.645Z,48.2
2018-09-13T15:09:57.932Z,47.6
2018-09-13T15:30:26.893Z,48.3
2018-09-13T15:35:34.239Z,48
2018-09-13T15:45:48.794Z,48.4
2018-09-13T15:50:58.271Z,48.9
2018-09-13T15:56:03.568Z,49
2018-09-13T16:01:10.706Z,47.8
2018-09-13T16:06:18.088Z,48.7
2018-09-13T16:11:25.464Z,48.5
2018-09-13T16:16:32.820Z,49
2018-09-13T16:21:40.109Z,48.4
2018-09-13T16:26:47.472Z,49.1
2018-09-13T16:31:54.697Z,49.1
2018-09-13T16:37:02.197Z,48.9
2018-09-13T16:42:09.346Z,48.8
2018-09-13T16:47:16.799Z,48.2
2018-09-13T16:52:24.100Z,48.2
2018-09-13T17:02:38.732Z,48.2
2018-09-13T17:12:53.684Z,48.6
2018-09-13T17:18:00.666Z,48.5
2018-09-13T17:23:08.050Z,48.2
2018-09-13T17:28:15.346Z,48.5
2018-09-13T17:33:22.850Z,48.7
2018-09-13T17:38:30.077Z,48.5
2018-09-13T17:43:37.617Z,48.5
2018-09-13T17:48:44.800Z,47.9
2018-09-13T17:53:52.216Z,48.2
2018-09-13T17:58:59.639Z,48.4
2018-09-13T18:04:06.960Z,48.6
2018-09-13T18:09:14.398Z,48.4
2018-09-13T18:14:21.845Z,48.8
2018-09-13T18:19:29.288Z,48.7
2018-09-13T18:24:36.765Z,49.6
2018-09-13T18:29:44.238Z,49
2018-09-13T18:34:51.730Z,49.2
2018-09-13T18:45:06.782Z,49.1
2018-09-13T18:50:14.348Z,49.4
2018-09-13T18:55:22.023Z,49.4
2018-09-13T19:00:29.508Z,49.2
2018-09-13T19:05:37.154Z,49.4
2018-09-13T19:10:44.883Z,49.4
2018-09-13T19:15:52.432Z,49.2
2018-09-13T19:21:00.140Z,48.8
2018-09-13T19:26:07.805Z,49.8
2018-09-13T19:31:15.479Z,50
2018-09-13T19:36:23.122Z,50.1
2018-09-13T19:41:30.906Z,50.7
2018-09-13T19:46:38.638Z,51.2
2018-09-13T19:51:46.402Z,51.1
2018-09-13T19:56:54.189Z,51.6
2018-09-13T20:02:02.106Z,51.2
2018-09-13T20:07:09.683Z,51.9
2018-09-13T20:12:18.281Z,52.2
2018-09-13T20:17:25.468Z,52.9
2018-09-13T20:37:56.729Z,53.9
2018-09-13T20:43:04.594Z,53.6
2018-09-13T20:48:12.469Z,54.4
2018-09-13T20:53:20.411Z,54.4
2018-09-13T20:58:28.388Z,54.4
2018-09-13T21:03:36.294Z,54.9
2018-09-13T21:08:44.149Z,54.7
2018-09-13T21:13:54.978Z,55.4
2018-09-13T21:19:00.106Z,55
2018-09-13T21:24:08.108Z,55.3
2018-09-13T21:29:16.168Z,55.5
2018-09-13T21:34:24.209Z,55.6
2018-09-13T21:39:32.349Z,56.1
2018-09-13T21:44:40.199Z,56.1
2018-09-13T21:49:48.124Z,56.6
2018-09-13T21:54:56.197Z,56.6
2018-09-13T22:00:04.285Z,56.3
2018-09-13T22:10:20.417Z,56.8
2018-09-13T22:15:28.552Z,57.2
2018-09-13T22:20:36.609Z,57
2018-09-13T22:25:45.199Z,57.3
2018-09-13T22:30:52.828Z,57.3
2018-09-13T22:36:00.953Z,57.2
2018-09-13T22:41:09.197Z,57
2018-09-13T22:46:17.167Z,57
2018-09-13T22:51:25.298Z,57
2018-09-13T22:56:33.374Z,57.3
2018-09-13T23:01:41.625Z,57.3
2018-09-13T23:06:49.641Z,56.7
2018-09-13T23:11:58.202Z,57
2018-09-13T23:17:05.971Z,57.1
2018-09-13T23:22:14.227Z,57.1
2018-09-13T23:27:22.334Z,57.4
2018-09-13T23:32:30.396Z,57.2
2018-09-13T23:37:38.580Z,57.2
2018-09-13T23:42:46.740Z,57.1
2018-09-13T23:53:03.011Z,57.1
